Time;durP1;ratioP1;P1;durP2;ratioP2;P2;SDS_P1;SDS_P2;PMS_P1;PMS_P2;Temp;Humidity;BMP_temperature;BMP_pressure;BME280_temperature;BME280_humidity;BME280_pressure;Samples;Min_cycle;Max_cycle;Signal;HPM_P1;HPM_P2
2023/01/05 00:00:19;;;;;;;;;;;;;;;9.74;77.13;100668.75;5053427;28;20279;-93
2023/01/05 00:02:44;;;;;;;;;;;;;;;9.89;77.22;100663.56;5052933;28;19920;-93
2023/01/05 00:05:09;;;;;;;;;;;;;;;9.98;76.79;100662.72;5052919;28;20065;-94
2023/01/05 00:07:35;;;;;;;;;;;;;;;9.92;76.30;100652.16;5054140;28;19915;-95
2023/01/05 00:10:00;;;;;;;;;;;;;;;9.93;76.68;100656.53;5053085;28;19921;-94
2023/01/05 00:23:21;;;;;;;;;;;;;;;9.84;77.45;100655.63;5054496;28;19919;-93
2023/01/05 00:25:46;;;;;;;;;;;;;;;9.87;77.30;100657.41;5052894;28;19912;-93
2023/01/05 00:28:11;;;;;;;;;;;;;;;9.90;77.10;100651.25;5052214;28;19920;-92
2023/01/05 00:30:41;;;;;;;;;;;;;;;9.95;76.69;100653.03;5053363;28;19967;-92
2023/01/05 00:33:07;;;;;;;;;;;;;;;9.99;76.72;100654.81;5052351;28;19912;-92
2023/01/05 00:35:32;;;;;;;;;;;;;;;9.81;76.96;100657.38;5052504;28;19927;-93
2023/01/05 00:37:57;;;;;;;;;;;;;;;9.67;77.56;100654.69;5051722;28;19913;-92
2023/01/05 00:40:23;;;;;;;;;;;;;;;9.68;77.62;100652.06;5052087;28;20379;-93
2023/01/05 00:42:48;;;;;;;;;;;;;;;9.62;78.45;100659.94;5053400;28;19913;-93
2023/01/05 00:45:14;;;;;;;;;;;;;;;9.73;77.65;100660.00;5051615;28;19919;-92
2023/01/05 00:47:40;;;;;;;;;;;;;;;9.58;78.22;100654.66;5052134;28;19986;-93
2023/01/05 00:50:06;;;;;;;;;;;;;;;9.63;78.30;100658.19;5052224;28;20371;-94
2023/01/05 00:52:31;;;;;;;;;;;;;;;9.81;77.86;100652.97;5052493;28;19955;-95
2023/01/05 00:54:56;;;;;;;;;;;;;;;9.84;77.51;100644.22;5053076;28;19912;-94
2023/01/05 00:57:22;;;;;;;;;;;;;;;9.89;77.01;100644.22;5052819;28;19912;-95
2023/01/05 00:59:47;;;;;;;;;;;;;;;9.90;77.30;100638.06;5052274;28;20007;-95
2023/01/05 01:02:12;;;;;;;;;;;;;;;9.85;77.40;100633.69;5053383;28;20367;-94
2023/01/05 01:04:38;;;;;;;;;;;;;;;9.90;77.18;100631.06;5054567;28;19916;-96
2023/01/05 01:07:04;;;;;;;;;;;;;;;9.83;77.13;100632.78;5055811;28;19913;-95
2023/01/05 01:09:29;;;;;;;;;;;;;;;9.53;77.83;100625.66;5053653;28;19912;-94
2023/01/05 01:11:55;;;;;;;;;;;;;;;9.50;78.73;100628.28;5051834;28;19913;-94
2023/01/05 01:14:20;;;;;;;;;;;;;;;9.71;77.83;100631.88;5051260;28;19963;-91
2023/01/05 01:16:45;;;;;;;;;;;;;;;9.72;77.41;100623.09;5051453;28;20397;-92
2023/01/05 01:19:15;;;;;;;;;;;;;;;9.71;77.78;100621.31;5051788;28;19913;-92
2023/01/05 01:21:40;;;;;;;;;;;;;;;9.53;78.20;100616.84;5052309;28;19913;-93
2023/01/05 01:24:06;;;;;;;;;;;;;;;9.58;78.01;100618.66;5051856;28;19919;-95
2023/01/05 01:26:31;;;;;;;;;;;;;;;9.66;78.02;100610.78;5052131;28;19962;-95
2023/01/05 01:28:56;;;;;;;;;;;;;;;9.46;79.12;100608.94;5034771;28;20019;-90
2023/01/05 01:31:22;;;;;;;;;;;;;;;9.53;78.65;100612.50;5052357;28;19970;-91
2023/01/05 01:33:47;;;;;;;;;;;;;;;9.53;78.44;100608.97;5052753;28;19920;-91
2023/01/05 01:36:12;;;;;;;;;;;;;;;9.34;79.39;100606.25;5051066;28;19923;-91
2023/01/05 01:38:38;;;;;;;;;;;;;;;9.32;79.55;100600.09;5051534;28;20355;-91
2023/01/05 01:41:03;;;;;;;;;;;;;;;9.50;78.84;100597.53;5052462;28;20015;-92
2023/01/05 01:44:04;;;;;;;;;;;;;;;9.43;78.82;100594.88;5052394;28;19913;-92
2023/01/05 01:46:29;;;;;;;;;;;;;;;9.44;78.30;100578.22;5050085;28;19955;-92
2023/01/05 01:48:59;;;;;;;;;;;;;;;9.52;78.01;100581.75;5046297;28;19959;-92
2023/01/05 01:51:35;;;;;;;;;;;;;;;9.44;77.60;100589.63;5052403;28;19913;-92
2023/01/05 01:54:02;;;;;;;;;;;;;;;9.29;78.36;100590.44;5051802;28;19913;-93
2023/01/05 01:56:31;;;;;;;;;;;;;;;9.35;78.38;100581.69;5051082;28;19924;-93
2023/01/05 01:58:57;;;;;;;;;;;;;;;9.19;79.24;100578.13;5051625;28;19913;-93
2023/01/05 02:01:22;;;;;;;;;;;;;;;9.29;78.45;100576.41;5053041;28;19938;-93
2023/01/05 02:03:47;;;;;;;;;;;;;;;9.34;78.35;100574.66;5051491;28;19979;-92
2023/01/05 02:06:13;;;;;;;;;;;;;;;9.25;77.76;100575.50;5069164;28;19901;-92
2023/01/05 02:08:38;;;;;;;;;;;;;;;9.15;78.76;100576.31;5072520;28;19913;-93
2023/01/05 02:11:10;;;;;;;;;;;;;;;9.07;78.86;100567.53;5053005;28;19929;-92
2023/01/05 02:13:53;;;;;;;;;;;;;;;9.19;79.08;100569.31;5050926;28;19999;-91
2023/01/05 02:16:28;;;;;;;;;;;;;;;9.13;79.14;100567.56;5050981;28;20397;-91
2023/01/05 02:19:08;;;;;;;;;;;;;;;9.12;78.47;100557.88;5051081;28;19999;-92
2023/01/05 02:21:36;;;;;;;;;;;;;;;9.09;77.90;100553.47;5052689;28;19990;-92
2023/01/05 02:24:02;;;;;;;;;;;;;;;9.12;78.09;100555.25;5051204;28;20006;-91
2023/01/05 02:26:46;;;;;;;;;;;;;;;9.14;77.84;100551.78;5051082;28;19940;-92
2023/01/05 02:29:26;;;;;;;;;;;;;;;9.07;78.08;100557.88;5050996;28;19920;-91
2023/01/05 02:32:15;;;;;;;;;;;;;;;9.13;77.36;100554.41;5051069;28;19916;-92
2023/01/05 02:35:06;;;;;;;;;;;;;;;8.94;77.86;100550.78;5053333;28;19913;-92
2023/01/05 02:37:37;;;;;;;;;;;;;;;8.84;77.24;100543.72;5052385;28;19954;-93
2023/01/05 02:40:06;;;;;;;;;;;;;;;8.90;77.26;100546.38;5056136;28;19913;-92
2023/01/05 02:42:33;;;;;;;;;;;;;;;8.79;77.50;100541.06;5056018;28;19962;-92
2023/01/05 02:45:04;;;;;;;;;;;;;;;8.75;77.50;100537.50;5055920;28;19919;-91
2023/01/05 02:47:40;;;;;;;;;;;;;;;8.70;77.33;100538.38;5053981;28;20008;-90
2023/01/05 02:50:28;;;;;;;;;;;;;;;8.67;77.57;100539.22;5055921;28;19935;-92
2023/01/05 02:53:07;;;;;;;;;;;;;;;8.64;77.55;100543.59;5054260;28;19920;-91
2023/01/05 02:55:39;;;;;;;;;;;;;;;8.62;77.56;100540.97;5055660;28;20000;-91
2023/01/05 02:58:09;;;;;;;;;;;;;;;8.66;77.59;100534.81;5055960;28;19920;-92
2023/01/05 03:00:39;;;;;;;;;;;;;;;8.70;77.62;100535.75;5054075;28;19963;-92
2023/01/05 03:03:07;;;;;;;;;;;;;;;8.43;78.11;100537.25;5054036;28;19916;-91
2023/01/05 03:05:36;;;;;;;;;;;;;;;8.47;78.70;100532.97;5054128;28;19924;-91
2023/01/05 03:08:09;;;;;;;;;;;;;;;8.48;77.54;100529.44;5053540;28;19963;-93
2023/01/05 03:13:41;;;;;;;;;;;;;;;8.30;77.53;100530.19;5055177;28;19927;-93
2023/01/05 03:16:13;;;;;;;;;;;;;;;8.32;77.80;100523.16;5054245;28;19960;-91
2023/01/05 03:21:25;;;;;;;;;;;;;;;8.24;77.89;100525.75;5055183;28;19919;-91
2023/01/05 03:35:31;;;;;;;;;;;;;;;8.04;76.75;100507.19;5054684;28;19923;-91
2023/01/05 03:37:59;;;;;;;;;;;;;;;8.04;77.37;100504.56;5054705;28;19913;-91
2023/01/05 03:40:27;;;;;;;;;;;;;;;8.02;77.15;100504.53;5053128;28;19921;-89
2023/01/05 03:42:53;;;;;;;;;;;;;;;7.99;76.45;100504.53;5054518;28;20333;-91
2023/01/05 03:45:19;;;;;;;;;;;;;;;7.96;75.84;100496.59;5052783;28;19913;-91
2023/01/05 03:47:45;;;;;;;;;;;;;;;7.88;76.32;100493.91;5054669;28;20474;-91
2023/01/05 03:50:10;;;;;;;;;;;;;;;7.83;76.18;100495.63;5053395;28;20012;-90
2023/01/05 03:52:35;;;;;;;;;;;;;;;7.74;76.24;100500.81;5053041;28;19913;-91
2023/01/05 03:55:01;;;;;;;;;;;;;;;7.64;76.30;100498.94;5053669;28;19913;-90
2023/01/05 03:57:26;;;;;;;;;;;;;;;7.81;75.47;100499.09;5053197;28;20015;-91
2023/01/05 03:59:51;;;;;;;;;;;;;;;7.31;76.55;100495.09;5053083;28;19916;-91
2023/01/05 04:02:17;;;;;;;;;;;;;;;7.26;76.97;100499.41;5054282;28;19917;-91
2023/01/05 04:04:42;;;;;;;;;;;;;;;7.21;76.96;100496.72;5052730;28;19912;-91
2023/01/05 04:07:07;;;;;;;;;;;;;;;7.12;77.71;100499.25;5052856;28;20381;-91
2023/01/05 04:09:33;;;;;;;;;;;;;;;7.23;77.37;100496.75;5053829;28;19920;-90
2023/01/05 04:11:59;;;;;;;;;;;;;;;7.18;77.13;100496.69;5052999;28;20007;-91
2023/01/05 04:14:24;;;;;;;;;;;;;;;7.13;77.38;100490.53;5053656;28;19908;-91
2023/01/05 04:16:49;;;;;;;;;;;;;;;7.09;77.02;100488.72;5053471;28;19919;-90
2023/01/05 04:19:15;;;;;;;;;;;;;;;7.05;77.69;100486.94;5054184;28;20291;-90
2023/01/05 04:21:40;;;;;;;;;;;;;;;6.91;77.51;100485.00;5052851;28;20066;-93
2023/01/05 04:24:05;;;;;;;;;;;;;;;6.95;77.28;100481.56;5053237;28;19920;-89
2023/01/05 04:26:31;;;;;;;;;;;;;;;6.93;77.73;100482.41;5053757;28;19962;-89
2023/01/05 04:28:56;;;;;;;;;;;;;;;6.89;78.39;100486.75;5052981;28;19974;-92
2023/01/05 04:31:21;;;;;;;;;;;;;;;6.92;78.54;100485.88;5053497;28;20011;-92
2023/01/05 04:33:46;;;;;;;;;;;;;;;6.82;78.53;100484.91;5052322;28;19982;-90
2023/01/05 04:36:12;;;;;;;;;;;;;;;6.79;77.88;100490.97;5052151;28;20417;-90
2023/01/05 04:38:37;;;;;;;;;;;;;;;6.85;77.78;100484.94;5054263;28;19923;-91
2023/01/05 04:41:02;;;;;;;;;;;;;;;6.91;77.70;100476.28;5052237;28;20367;-91
2023/01/05 04:43:27;;;;;;;;;;;;;;;6.90;77.82;100478.00;5053103;28;19913;-91
2023/01/05 04:45:53;;;;;;;;;;;;;;;7.02;78.00;100479.03;5053724;28;20405;-94
2023/01/05 04:48:18;;;;;;;;;;;;;;;7.10;77.58;100475.63;5053355;28;19912;-93
2023/01/05 04:50:44;;;;;;;;;;;;;;;6.98;77.74;100475.47;5052126;28;19913;-90
2023/01/05 04:53:09;;;;;;;;;;;;;;;7.03;78.21;100473.81;5057961;28;20305;-96
2023/01/05 04:55:34;;;;;;;;;;;;;;;7.08;78.44;100472.09;5056280;28;20394;-96
2023/01/05 04:58:00;;;;;;;;;;;;;;;7.07;78.16;100466.84;5060234;28;19920;-95
2023/01/05 05:00:25;;;;;;;;;;;;;;;7.08;78.04;100463.34;5064589;28;19935;-94
2023/01/05 05:02:50;;;;;;;;;;;;;;;7.06;77.48;100470.31;5067602;28;20310;-92
2023/01/05 05:05:16;;;;;;;;;;;;;;;7.06;77.49;100460.72;5059491;28;19920;-94
2023/01/05 05:07:41;;;;;;;;;;;;;;;6.97;77.30;100458.00;5060490;28;20371;-94
2023/01/05 05:10:06;;;;;;;;;;;;;;;6.95;77.45;100464.94;5057574;28;19916;-95
2023/01/05 05:12:32;;;;;;;;;;;;;;;7.03;77.18;100458.06;5057802;28;20319;-95
2023/01/05 05:14:57;;;;;;;;;;;;;;;6.89;76.70;100464.88;5058376;28;20390;-94
2023/01/05 05:17:22;;;;;;;;;;;;;;;6.63;77.19;100465.44;5056049;28;19962;-95
2023/01/05 05:19:48;;;;;;;;;;;;;;;6.58;78.02;100461.84;5056230;28;19956;-93
2023/01/05 05:22:13;;;;;;;;;;;;;;;6.55;77.84;100460.09;5056252;28;19946;-95
2023/01/05 05:24:38;;;;;;;;;;;;;;;6.66;77.52;100462.84;5057281;28;19959;-94
2023/01/05 05:27:03;;;;;;;;;;;;;;;6.67;77.00;100458.47;5057435;28;19917;-95
2023/01/05 05:29:29;;;;;;;;;;;;;;;6.65;76.85;100461.06;5057224;28;19951;-92
2023/01/05 05:31:54;;;;;;;;;;;;;;;6.65;76.86;100458.44;5072874;28;19943;-90
2023/01/05 05:34:19;;;;;;;;;;;;;;;6.66;76.62;100460.22;5071222;28;19913;-92
2023/01/05 05:36:45;;;;;;;;;;;;;;;6.56;76.53;100451.34;5053464;28;19924;-95
2023/01/05 05:39:10;;;;;;;;;;;;;;;6.51;76.53;100452.16;5055081;28;20000;-93
2023/01/05 05:41:36;;;;;;;;;;;;;;;6.47;76.88;100448.59;5052903;28;19912;-93
2023/01/05 05:44:01;;;;;;;;;;;;;;;6.49;76.94;100451.22;5053141;28;19912;-94
2023/01/05 05:46:27;;;;;;;;;;;;;;;6.18;76.71;100443.84;5053780;28;19983;-96
2023/01/05 05:48:53;;;;;;;;;;;;;;;6.22;76.86;100440.38;5053455;28;19952;-93
2023/01/05 05:51:18;;;;;;;;;;;;;;;6.19;77.68;100435.09;5053700;28;19920;-94
2023/01/05 05:53:43;;;;;;;;;;;;;;;6.18;77.95;100442.94;5052871;28;19913;-93
2023/01/05 05:56:09;;;;;;;;;;;;;;;6.21;78.30;100441.25;5052983;28;20051;-94
2023/01/05 05:58:34;;;;;;;;;;;;;;;6.12;78.80;100443.75;5054004;28;19913;-95
2023/01/05 06:00:59;;;;;;;;;;;;;;;6.20;78.28;100436.88;5052939;28;19909;-96
2023/01/05 06:03:24;;;;;;;;;;;;;;;6.13;78.09;100440.25;5053304;28;20011;-95
2023/01/05 06:05:50;;;;;;;;;;;;;;;6.19;77.88;100450.81;5053200;28;19912;-94
2023/01/05 06:08:15;;;;;;;;;;;;;;;6.22;77.67;100450.88;5055341;28;19966;-94
2023/01/05 06:10:41;;;;;;;;;;;;;;;6.19;77.26;100442.97;5057073;28;19912;-94
2023/01/05 06:13:06;;;;;;;;;;;;;;;6.13;77.94;100444.63;5057342;28;20393;-94
2023/01/05 06:15:31;;;;;;;;;;;;;;;6.18;77.64;100445.56;5056608;28;19916;-94
2023/01/05 06:17:56;;;;;;;;;;;;;;;6.13;77.54;100444.63;5057155;28;19939;-93
2023/01/05 06:20:22;;;;;;;;;;;;;;;6.12;77.62;100446.38;5057155;28;19912;-95
2023/01/05 06:22:47;;;;;;;;;;;;;;;6.15;77.79;100443.78;5056449;28;20457;-92
2023/01/05 06:25:12;;;;;;;;;;;;;;;6.14;77.81;100444.63;5056182;28;19920;-92
2023/01/05 06:27:38;;;;;;;;;;;;;;;6.19;77.89;100445.56;5056334;28;19921;-92
2023/01/05 06:30:03;;;;;;;;;;;;;;;6.23;77.96;100454.38;5056679;28;19935;-92
2023/01/05 06:32:28;;;;;;;;;;;;;;;6.25;78.21;100452.66;5055744;28;19917;-91
2023/01/05 06:34:54;;;;;;;;;;;;;;;6.39;78.00;100458.97;5055713;28;20047;-92
2023/01/05 06:37:19;;;;;;;;;;;;;;;6.41;77.56;100459.00;5056185;28;19913;-92
2023/01/05 06:39:44;;;;;;;;;;;;;;;6.59;77.03;100453.13;5056151;28;19912;-95
2023/01/05 06:42:10;;;;;;;;;;;;;;;6.48;77.77;100458.22;5057973;28;20349;-93
2023/01/05 06:44:35;;;;;;;;;;;;;;;6.41;78.29;100454.66;5056579;28;19913;-95
2023/01/05 06:47:00;;;;;;;;;;;;;;;6.39;78.65;100453.72;5056671;28;19971;-96
2023/01/05 06:49:26;;;;;;;;;;;;;;;6.51;78.91;100444.28;5059816;28;19912;-95
2023/01/05 06:51:51;;;;;;;;;;;;;;;6.59;78.81;100445.25;5058172;28;19920;-96
2023/01/05 06:54:16;;;;;;;;;;;;;;;6.69;78.36;100447.16;5051895;28;19921;-96
2023/01/05 06:56:41;;;;;;;;;;;;;;;6.78;78.85;100444.66;5040155;28;20371;-96
2023/01/05 06:59:07;;;;;;;;;;;;;;;6.93;78.35;100440.44;5038265;28;19924;-96
2023/01/05 07:01:32;;;;;;;;;;;;;;;6.99;78.35;100437.88;5045620;28;19913;-95
2023/01/05 07:03:57;;;;;;;;;;;;;;;7.20;77.67;100429.38;5034023;28;20371;-92
2023/01/05 07:06:23;;;;;;;;;;;;;;;7.29;77.93;100423.31;5033222;28;19913;-96
2023/01/05 07:08:48;;;;;;;;;;;;;;;7.49;77.85;100421.81;5046189;28;19920;-90
2023/01/05 07:11:15;;;;;;;;;;;;;;;7.48;78.20;100420.03;5047716;28;20345;-90
2023/01/05 07:13:40;;;;;;;;;;;;;;;7.46;79.76;100415.63;5042357;28;20003;-94
2023/01/05 07:16:06;;;;;;;;;;;;;;;7.73;79.74;100409.75;5049208;28;20331;-95
2023/01/05 07:18:31;;;;;;;;;;;;;;;7.71;80.73;100400.97;5049905;28;20032;-89
2023/01/05 07:20:58;;;;;;;;;;;;;;;8.08;79.80;100403.88;5040397;28;19920;-92
2023/01/05 07:23:23;;;;;;;;;;;;;;;8.23;79.42;100403.97;5041324;28;19923;-90
2023/01/05 07:25:49;;;;;;;;;;;;;;;8.29;80.33;100400.47;5051716;28;19917;-92
2023/01/05 07:28:14;;;;;;;;;;;;;;;8.45;80.58;100390.97;5047512;28;19909;-92
2023/01/05 07:30:39;;;;;;;;;;;;;;;8.96;79.14;100385.91;5038956;28;20364;-91
2023/01/05 07:33:04;;;;;;;;;;;;;;;8.95;79.65;100381.50;5035668;28;20375;-91
2023/01/05 07:35:31;;;;;;;;;;;;;;;8.89;81.22;100377.09;5047119;28;19959;-94
2023/01/05 07:37:56;;;;;;;;;;;;;;;9.17;81.33;100373.66;5045910;28;19917;-92
2023/01/05 07:40:22;;;;;;;;;;;;;;;9.41;79.90;100372.81;5065200;28;19924;-86
2023/01/05 07:42:51;;;;;;;;;;;;;;;9.83;79.47;100371.03;5045917;28;19920;-86
2023/01/05 07:45:16;;;;;;;;;;;;;;;9.91;78.85;100371.88;5040747;28;19917;-87
2023/01/05 07:47:42;;;;;;;;;;;;;;;10.16;77.95;100362.19;5034655;28;20355;-88
2023/01/05 07:50:07;;;;;;;;;;;;;;;10.29;77.12;100357.75;5034448;28;19916;-88
2023/01/05 07:52:32;;;;;;;;;;;;;;;9.71;78.39;100361.38;5034600;28;20031;-88
2023/01/05 07:54:58;;;;;;;;;;;;;;;9.67;78.01;100357.88;5033971;28;19921;-88
2023/01/05 07:57:23;;;;;;;;;;;;;;;9.72;79.65;100351.72;5034294;28;19913;-87
2023/01/05 07:59:48;;;;;;;;;;;;;;;9.89;79.68;100351.72;5032967;28;19913;-88
2023/01/05 08:02:14;;;;;;;;;;;;;;;10.20;77.87;100353.38;5033863;28;20371;-86
2023/01/05 08:04:39;;;;;;;;;;;;;;;10.34;76.17;100357.75;5034193;28;20358;-86
2023/01/05 08:07:09;;;;;;;;;;;;;;;10.62;75.10;100355.00;5034045;28;19917;-88
2023/01/05 08:12:19;;;;;;;;;;;;;;;10.86;75.13;100346.06;5034042;28;20386;-87
2023/01/05 08:14:44;;;;;;;;;;;;;;;10.98;73.09;100335.44;5033671;28;19913;-88
2023/01/05 08:17:09;;;;;;;;;;;;;;;11.02;72.70;100344.25;5034527;28;20004;-88
2023/01/05 08:19:34;;;;;;;;;;;;;;;10.90;73.09;100334.63;5033130;28;19913;-88
2023/01/05 08:22:00;;;;;;;;;;;;;;;11.09;72.89;100336.25;5033610;28;19913;-89
2023/01/05 08:24:25;;;;;;;;;;;;;;;11.33;72.04;100334.31;5034358;28;19913;-89
2023/01/05 08:26:51;;;;;;;;;;;;;;;11.46;71.41;100324.53;5033808;28;20023;-90
2023/01/05 08:29:16;;;;;;;;;;;;;;;11.56;70.67;100322.69;5034025;28;19913;-89
2023/01/05 08:31:41;;;;;;;;;;;;;;;11.36;71.62;100323.72;5033726;28;19913;-91
2023/01/05 08:34:06;;;;;;;;;;;;;;;11.76;70.33;100319.88;5032694;28;19986;-90
2023/01/05 08:36:32;;;;;;;;;;;;;;;11.91;70.14;100310.88;5033128;28;19921;-87
2023/01/05 08:39:00;;;;;;;;;;;;;;;11.93;69.66;100301.22;5033535;28;19913;-88
2023/01/05 08:41:30;;;;;;;;;;;;;;;11.92;69.61;100297.69;5033458;28;19915;-89
2023/01/05 08:43:56;;;;;;;;;;;;;;;11.96;69.40;100303.81;5033104;28;20359;-90
2023/01/05 08:46:22;;;;;;;;;;;;;;;12.02;69.26;100287.91;5033808;28;20446;-89
2023/01/05 08:48:48;;;;;;;;;;;;;;;11.83;69.63;100293.34;5032105;28;19917;-88
2023/01/05 08:51:14;;;;;;;;;;;;;;;11.61;69.89;100283.88;5033658;28;20464;-88
2023/01/05 08:53:39;;;;;;;;;;;;;;;11.57;70.59;100277.75;5033595;28;20003;-88
2023/01/05 08:56:04;;;;;;;;;;;;;;;11.70;70.63;100265.28;5033636;28;19919;-88
2023/01/05 08:58:30;;;;;;;;;;;;;;;11.68;70.93;100263.53;5033618;28;19917;-89
2023/01/05 09:00:55;;;;;;;;;;;;;;;11.83;69.51;100252.81;5032003;28;19996;-89
2023/01/05 09:03:21;;;;;;;;;;;;;;;11.69;70.96;100245.03;5031768;28;19920;-89
2023/01/05 09:05:46;;;;;;;;;;;;;;;11.78;70.30;100241.41;5032751;28;19920;-89
2023/01/05 09:08:11;;;;;;;;;;;;;;;11.88;70.25;100247.47;5033196;28;20063;-88
2023/01/05 09:10:36;;;;;;;;;;;;;;;11.98;69.65;100246.50;5033024;28;20299;-89
2023/01/05 09:13:02;;;;;;;;;;;;;;;11.80;70.11;100243.16;5032581;28;19960;-89
2023/01/05 09:15:27;;;;;;;;;;;;;;;12.10;70.36;100225.22;5032769;28;19920;-89
2023/01/05 09:17:52;;;;;;;;;;;;;;;12.13;69.03;100229.59;5031518;28;19945;-90
2023/01/05 09:20:18;;;;;;;;;;;;;;;11.90;69.46;100220.13;5032717;28;20004;-89
2023/01/05 09:22:43;;;;;;;;;;;;;;;11.86;70.19;100221.06;5032417;28;19921;-90
2023/01/05 09:25:09;;;;;;;;;;;;;;;11.86;69.60;100217.53;5032930;28;19913;-88
2023/01/05 09:27:35;;;;;;;;;;;;;;;11.95;68.82;100213.03;5032666;28;20012;-89
2023/01/05 09:30:01;;;;;;;;;;;;;;;11.79;70.26;100208.81;5033091;28;19960;-89
2023/01/05 09:32:26;;;;;;;;;;;;;;;11.99;69.42;100208.63;5032577;28;19967;-89
2023/01/05 09:34:51;;;;;;;;;;;;;;;11.85;69.89;100214.03;5032743;28;19917;-89
2023/01/05 09:37:16;;;;;;;;;;;;;;;12.04;68.26;100208.56;5032572;28;19923;-89
2023/01/05 09:39:42;;;;;;;;;;;;;;;12.13;68.55;100201.38;5032782;28;19913;-89
2023/01/05 09:42:11;;;;;;;;;;;;;;;12.30;68.42;100189.69;5032214;28;19913;-89
2023/01/05 09:44:42;;;;;;;;;;;;;;;12.29;66.75;100186.16;5033190;28;20334;-89
2023/01/05 09:47:26;;;;;;;;;;;;;;;12.29;67.46;100180.84;5032995;28;20011;-89
2023/01/05 09:49:52;;;;;;;;;;;;;;;12.56;67.21;100170.78;5032163;28;19920;-89
2023/01/05 09:52:20;;;;;;;;;;;;;;;12.64;66.02;100168.00;5032437;28;20024;-89
2023/01/05 09:54:45;;;;;;;;;;;;;;;13.04;63.89;100168.22;5032158;28;20291;-88
2023/01/05 09:57:18;;;;;;;;;;;;;;;13.02;63.27;100151.47;5032516;28;19924;-91
2023/01/05 09:59:46;;;;;;;;;;;;;;;12.58;61.38;100147.81;5032651;28;19970;-93
2023/01/05 10:02:20;;;;;;;;;;;;;;;12.34;62.28;100136.72;5031090;28;20292;-89
2023/01/05 10:04:46;;;;;;;;;;;;;;;12.44;61.30;100137.44;5032377;28;19913;-89
2023/01/05 10:07:18;;;;;;;;;;;;;;;12.74;61.65;100124.59;5032201;28;20064;-91
2023/01/05 10:09:44;;;;;;;;;;;;;;;12.80;60.49;100113.03;5032203;28;19920;-90
2023/01/05 10:15:04;;;;;;;;;;;;;;;13.14;59.94;100096.53;5032072;28;19944;-92
2023/01/05 10:17:32;;;;;;;;;;;;;;;13.32;57.82;100090.88;5032519;28;19992;-91
2023/01/05 10:19:57;;;;;;;;;;;;;;;13.35;58.08;100082.03;5030737;28;19943;-91
2023/01/05 10:22:41;;;;;;;;;;;;;;;13.06;57.98;100084.31;5032591;28;20004;-92
2023/01/05 10:25:36;;;;;;;;;;;;;;;13.50;57.71;100067.56;5031107;28;20488;-90
2023/01/05 10:28:13;;;;;;;;;;;;;;;13.50;57.18;100054.31;5012536;28;19914;-88
2023/01/05 10:30:58;;;;;;;;;;;;;;;13.59;56.90;100048.81;5031961;28;19917;-88
2023/01/05 10:33:30;;;;;;;;;;;;;;;13.73;56.31;100033.50;5031842;28;20398;-88
2023/01/05 10:36:10;;;;;;;;;;;;;;;13.46;55.41;100031.47;5031731;28;19925;-87
2023/01/05 10:39:04;;;;;;;;;;;;;;;13.65;55.07;100032.78;5032147;28;19962;-89
2023/01/05 10:41:37;;;;;;;;;;;;;;;13.68;55.71;100039.81;5012577;28;19955;-87
2023/01/05 10:44:08;;;;;;;;;;;;;;;13.49;55.05;100037.56;5031858;28;19963;-87
2023/01/05 10:46:38;;;;;;;;;;;;;;;13.35;53.91;100043.16;5032721;28;20020;-88
2023/01/05 10:49:05;;;;;;;;;;;;;;;13.37;53.72;100037.81;5032313;28;19920;-88
2023/01/05 10:51:35;;;;;;;;;;;;;;;13.37;54.10;100024.56;5030633;28;20316;-87
2023/01/05 10:54:02;;;;;;;;;;;;;;;13.45;53.65;100022.63;5032158;28;19936;-87
2023/01/05 10:56:28;;;;;;;;;;;;;;;13.53;53.89;100020.69;5035188;28;19924;-88
2023/01/05 10:59:09;;;;;;;;;;;;;;;13.74;53.25;100021.13;5035430;28;19920;-90
2023/01/05 11:01:35;;;;;;;;;;;;;;;13.76;53.24;100016.63;5035371;28;19920;-87
2023/01/05 11:04:01;;;;;;;;;;;;;;;13.90;53.06;100003.94;5033939;28;20277;-88
2023/01/05 11:06:27;;;;;;;;;;;;;;;13.99;52.50;99996.69;5035053;28;19919;-87
2023/01/05 11:08:54;;;;;;;;;;;;;;;14.18;53.22;100010.34;5035511;28;19909;-87
2023/01/05 11:11:28;;;;;;;;;;;;;;;14.27;53.74;99996.84;5035124;28;20375;-87
2023/01/05 11:13:57;;;;;;;;;;;;;;;14.20;52.30;99993.50;5035269;28;20011;-87
2023/01/05 11:16:26;;;;;;;;;;;;;;;14.24;51.17;99992.50;5035239;28;20007;-86
2023/01/05 11:19:06;;;;;;;;;;;;;;;14.60;51.34;99991.59;5035379;28;19913;-86
2023/01/05 11:21:34;;;;;;;;;;;;;;;14.66;52.58;99978.19;5034725;28;19920;-88
2023/01/05 11:24:00;;;;;;;;;;;;;;;14.66;51.16;99975.53;5035292;28;19920;-88
2023/01/05 11:26:35;;;;;;;;;;;;;;;14.36;51.66;99974.53;5035054;28;19913;-89
2023/01/05 11:29:13;;;;;;;;;;;;;;;14.23;51.56;99963.38;5034871;28;20433;-87
2023/01/05 11:31:44;;;;;;;;;;;;;;;13.97;52.00;99963.09;5035052;28;19956;-89
2023/01/05 11:34:15;;;;;;;;;;;;;;;14.27;52.30;99950.00;5033160;28;19909;-87
2023/01/05 11:36:41;;;;;;;;;;;;;;;14.39;51.45;99951.41;5035196;28;19924;-88
2023/01/05 11:39:17;;;;;;;;;;;;;;;14.40;52.01;99947.88;5033787;28;20290;-88
2023/01/05 11:41:42;;;;;;;;;;;;;;;14.33;52.61;99938.31;5034419;28;20391;-87
2023/01/05 11:44:17;;;;;;;;;;;;;;;14.40;51.61;99941.69;5034594;28;19913;-87
2023/01/05 11:46:42;;;;;;;;;;;;;;;14.70;51.88;99939.16;5033319;28;19935;-86
2023/01/05 11:49:08;;;;;;;;;;;;;;;14.45;51.32;99935.34;5034558;28;20000;-87
2023/01/05 11:51:40;;;;;;;;;;;;;;;14.67;49.64;99925.06;5034792;28;20287;-87
2023/01/05 11:54:25;;;;;;;;;;;;;;;14.68;50.09;99926.78;5034843;28;19913;-88
2023/01/05 11:57:05;;;;;;;;;;;;;;;14.63;51.21;99931.34;5034139;28;20276;-89
2023/01/05 11:59:30;;;;;;;;;;;;;;;14.82;50.51;99923.72;5034412;28;20275;-89
2023/01/05 12:02:05;;;;;;;;;;;;;;;15.00;50.51;99918.81;5033193;28;19913;-88
2023/01/05 12:04:45;;;;;;;;;;;;;;;15.06;49.10;99910.66;5034308;28;19916;-88
2023/01/05 12:07:13;;;;;;;;;;;;;;;14.99;48.96;99911.75;5033994;28;19971;-89
2023/01/05 12:10:05;;;;;;;;;;;;;;;14.85;49.39;99907.69;5032910;28;19913;-88
2023/01/05 12:12:30;;;;;;;;;;;;;;;15.12;48.85;99898.94;5032621;28;19913;-86
2023/01/05 12:15:04;;;;;;;;;;;;;;;15.16;49.88;99898.81;5034072;28;20353;-87
2023/01/05 12:17:42;;;;;;;;;;;;;;;15.11;49.80;99887.47;5034012;28;19917;-85
2023/01/05 12:20:22;;;;;;;;;;;;;;;15.13;49.16;99879.44;5033654;28;19991;-88
2023/01/05 12:22:53;;;;;;;;;;;;;;;15.01;50.09;99886.88;5032373;28;19975;-87
2023/01/05 12:25:28;;;;;;;;;;;;;;;14.79;49.40;99886.63;5033927;28;20008;-87
2023/01/05 12:28:12;;;;;;;;;;;;;;;14.93;48.94;99890.69;5032534;28;19920;-88
2023/01/05 12:30:46;;;;;;;;;;;;;;;14.62;49.38;99891.56;5033777;28;19921;-88
2023/01/05 12:33:14;;;;;;;;;;;;;;;14.93;49.42;99885.38;5034065;28;19916;-88
2023/01/05 12:36:06;;;;;;;;;;;;;;;15.07;49.20;99879.63;5034152;28;19921;-87
2023/01/05 12:38:58;;;;;;;;;;;;;;;14.96;48.94;99883.47;5032141;28;19923;-88
2023/01/05 12:41:23;;;;;;;;;;;;;;;14.85;49.42;99877.63;5032366;28;20303;-87
2023/01/05 12:44:00;;;;;;;;;;;;;;;14.87;49.19;99873.13;5033187;28;19913;-86
2023/01/05 12:46:25;;;;;;;;;;;;;;;15.19;49.39;99866.84;5033486;28;20004;-86
2023/01/05 12:48:59;;;;;;;;;;;;;;;15.06;49.72;99867.25;5033273;28;20007;-88
2023/01/05 12:51:34;;;;;;;;;;;;;;;15.11;48.68;99862.69;5033442;28;19913;-88
2023/01/05 12:54:20;;;;;;;;;;;;;;;15.02;49.21;99856.72;5033672;28;20011;-88
2023/01/05 12:56:57;;;;;;;;;;;;;;;15.16;48.37;99856.28;5033236;28;19913;-88
2023/01/05 12:59:27;;;;;;;;;;;;;;;15.22;48.40;99861.41;5033487;28;19925;-89
2023/01/05 13:01:59;;;;;;;;;;;;;;;15.40;48.58;99865.28;5032007;28;19971;-89
2023/01/05 13:04:30;;;;;;;;;;;;;;;15.30;48.28;99868.28;5033408;28;19913;-89
2023/01/05 13:06:57;;;;;;;;;;;;;;;15.29;49.19;99856.81;5033264;28;20384;-92
2023/01/05 13:09:26;;;;;;;;;;;;;;;15.53;48.77;99855.13;5032970;28;19919;-90
2023/01/05 13:11:59;;;;;;;;;;;;;;;15.42;48.11;99853.75;5033186;28;19920;-91
2023/01/05 13:14:28;;;;;;;;;;;;;;;15.10;49.37;99856.50;5034171;28;19916;-95
2023/01/05 13:16:57;;;;;;;;;;;;;;;15.29;49.07;99853.25;5032473;28;20298;-88
2023/01/05 13:19:44;;;;;;;;;;;;;;;15.46;49.29;99853.59;5033165;28;19913;-88
2023/01/05 13:22:17;;;;;;;;;;;;;;;15.69;48.11;99850.19;5033103;28;19920;-91
2023/01/05 13:25:18;;;;;;;;;;;;;;;15.66;48.37;99847.63;5031634;28;19917;-88